createdAt,value
2022-12-07T00:02:03.605Z,53.53
2022-12-07T00:05:05.847Z,55.03
2022-12-07T00:08:07.951Z,48.33
2022-12-07T00:11:11.209Z,43.97
2022-12-07T00:14:14.449Z,48.78
2022-12-07T00:17:16.489Z,42.17
2022-12-07T00:20:18.467Z,44.55
2022-12-07T00:23:20.429Z,55.25
2022-12-07T00:26:24.084Z,73.47
2022-12-07T00:29:26.112Z,44.58
2022-12-07T00:32:28.092Z,48.70
2022-12-07T00:35:30.066Z,39.03
2022-12-07T00:38:33.536Z,39.93
2022-12-07T00:41:35.853Z,42.55
2022-12-07T00:44:37.872Z,41.05
2022-12-07T00:47:39.857Z,38.57
2022-12-07T00:50:41.837Z,44.08
2022-12-07T00:53:43.846Z,50.47
2022-12-07T00:56:45.904Z,49.95
2022-12-07T00:59:48.992Z,44.97
2022-12-07T01:02:51.336Z,37.95
2022-12-07T01:05:54.077Z,40.80
2022-12-07T01:08:56.148Z,40.17
2022-12-07T01:11:58.164Z,39.92
2022-12-07T01:15:00.184Z,37.40
2022-12-07T01:18:02.214Z,38.17
2022-12-07T01:21:08.381Z,38.33
2022-12-07T01:24:11.337Z,34.58
2022-12-07T01:27:13.553Z,41.85
2022-12-07T01:30:15.588Z,36.13
2022-12-07T01:33:17.629Z,36.33
2022-12-07T01:36:19.608Z,32.25
2022-12-07T01:39:21.684Z,40.77
2022-12-07T01:42:23.666Z,36.58
2022-12-07T01:45:39.171Z,32.42
2022-12-07T01:48:42.267Z,30.83
2022-12-07T01:51:44.636Z,35.47
2022-12-07T01:54:48.765Z,32.53
2022-12-07T01:57:52.089Z,40.22
2022-12-07T02:00:54.786Z,41.25
2022-12-07T02:03:57.168Z,36.55
2022-12-07T02:06:59.232Z,37.25
2022-12-07T02:10:14.195Z,31.63
2022-12-07T02:13:26.853Z,33.95
2022-12-07T02:16:34.498Z,43.20
2022-12-07T02:19:54.691Z,37.90
2022-12-07T02:23:05.599Z,38.55
2022-12-07T02:26:22.581Z,47.22
2022-12-07T02:29:26.088Z,29.48
2022-12-07T02:32:33.916Z,34.83
2022-12-07T02:35:44.188Z,28.48
2022-12-07T02:38:56.822Z,32.05
2022-12-07T02:42:03.388Z,30.23
2022-12-07T02:45:06.966Z,26.70
2022-12-07T02:48:10.946Z,28.35
2022-12-07T02:51:13.016Z,30.63
2022-12-07T02:54:15.862Z,28.33
2022-12-07T02:57:17.817Z,24.67
2022-12-07T03:00:20.523Z,31.50
2022-12-07T03:03:23.212Z,24.52
2022-12-07T03:06:29.720Z,30.35
2022-12-07T03:09:43.641Z,34.05
2022-12-07T03:12:45.608Z,27.23
2022-12-07T03:15:50.988Z,35.08
2022-12-07T03:18:59.026Z,32.13
2022-12-07T03:22:02.968Z,32.37
2022-12-07T03:25:10.708Z,29.02
2022-12-07T03:28:13.492Z,17.75
2022-12-07T03:31:21.000Z,38.80
2022-12-07T03:34:37.693Z,31.52
2022-12-07T03:37:41.949Z,34.88
2022-12-07T03:40:58.930Z,33.92
2022-12-07T03:44:01.262Z,29.37
2022-12-07T03:47:05.905Z,24.77
2022-12-07T03:50:07.852Z,24.92
2022-12-07T03:53:12.668Z,23.57
2022-12-07T03:56:15.040Z,21.40
2022-12-07T03:59:17.935Z,22.85
2022-12-07T04:02:20.821Z,25.20
2022-12-07T04:05:22.953Z,33.95
2022-12-07T04:08:25.026Z,42.63
2022-12-07T04:11:27.102Z,48.70
2022-12-07T04:14:29.134Z,41.23
2022-12-07T04:17:31.095Z,34.53
2022-12-07T04:20:33.145Z,29.65
2022-12-07T04:23:35.097Z,32.50
2022-12-07T04:26:37.099Z,30.75
2022-12-07T04:29:39.132Z,31.10
2022-12-07T04:32:41.137Z,28.65
2022-12-07T04:35:43.795Z,32.20
2022-12-07T04:38:45.749Z,26.10
2022-12-07T04:41:47.777Z,22.80
2022-12-07T04:44:49.803Z,29.27
2022-12-07T04:47:51.811Z,30.67
2022-12-07T04:50:53.920Z,24.58
2022-12-07T04:53:56.136Z,29.40
2022-12-07T04:56:58.117Z,28.55
2022-12-07T05:00:00.647Z,25.67
2022-12-07T05:03:02.860Z,35.22
2022-12-07T05:06:09.086Z,35.55
2022-12-07T05:09:15.122Z,26.33
2022-12-07T05:12:17.198Z,27.23
2022-12-07T05:15:19.216Z,25.13
2022-12-07T05:18:21.324Z,27.98
2022-12-07T05:21:23.529Z,34.72
2022-12-07T05:24:25.547Z,36.80
2022-12-07T05:27:27.513Z,31.70
2022-12-07T05:30:29.572Z,28.45
2022-12-07T05:33:31.579Z,51.47
2022-12-07T05:36:33.624Z,98.00
2022-12-07T05:39:35.652Z,44.17
2022-12-07T05:42:37.612Z,36.33
2022-12-07T05:45:39.705Z,33.10
2022-12-07T05:48:41.774Z,37.45
2022-12-07T05:51:43.840Z,46.85
2022-12-07T05:54:45.854Z,55.57
2022-12-07T05:58:06.322Z,44.75
2022-12-07T06:01:08.323Z,43.85
2022-12-07T06:04:10.354Z,39.78
2022-12-07T06:07:13.146Z,52.45
2022-12-07T06:10:15.225Z,43.80
2022-12-07T06:13:17.175Z,42.95
2022-12-07T06:16:19.239Z,40.93
2022-12-07T06:19:21.336Z,46.00
2022-12-07T06:22:23.377Z,32.45
2022-12-07T06:25:25.387Z,35.50
2022-12-07T06:28:27.434Z,33.33
2022-12-07T06:31:29.570Z,39.17
2022-12-07T06:34:32.859Z,30.90
2022-12-07T06:37:37.911Z,52.60
2022-12-07T06:40:40.014Z,51.72
2022-12-07T06:43:43.190Z,54.03
2022-12-07T06:46:45.473Z,50.23
2022-12-07T06:49:47.550Z,59.72
2022-12-07T06:52:49.650Z,53.45
2022-12-07T06:55:52.185Z,59.50
2022-12-07T06:58:54.283Z,60.45
2022-12-07T07:01:56.419Z,60.20
2022-12-07T07:04:58.855Z,53.85
2022-12-07T07:11:23.384Z,44.08
2022-12-07T07:14:25.462Z,38.20
2022-12-07T07:17:27.518Z,49.23
2022-12-07T07:20:29.681Z,46.33
2022-12-07T07:23:32.082Z,42.70
2022-12-07T07:26:34.189Z,45.43
2022-12-07T07:29:36.308Z,40.38
2022-12-07T07:32:38.384Z,48.83
2022-12-07T07:35:40.573Z,64.32
2022-12-07T07:38:42.668Z,82.13
2022-12-07T07:41:44.743Z,53.80
2022-12-07T07:44:49.693Z,47.20
2022-12-07T07:47:51.786Z,52.77
2022-12-07T07:50:53.917Z,61.65
2022-12-07T07:53:56.132Z,55.70
2022-12-07T07:56:58.363Z,52.23
2022-12-07T08:00:00.901Z,55.25
2022-12-07T08:03:03.331Z,47.90
2022-12-07T08:06:05.735Z,45.17
2022-12-07T08:09:07.875Z,82.95
2022-12-07T08:12:10.138Z,50.80
2022-12-07T08:15:12.224Z,51.88
2022-12-07T08:18:14.956Z,46.77
2022-12-07T08:21:17.094Z,48.95
2022-12-07T08:24:19.590Z,45.67
2022-12-07T08:27:21.815Z,44.13
2022-12-07T08:30:24.021Z,55.22
2022-12-07T08:33:26.166Z,49.25
2022-12-07T08:36:28.282Z,42.35
2022-12-07T08:39:32.053Z,49.97
2022-12-07T08:42:41.392Z,47.70
2022-12-07T08:45:43.537Z,56.33
2022-12-07T08:48:47.901Z,51.13
2022-12-07T08:51:50.357Z,51.85
2022-12-07T08:54:52.451Z,54.28
2022-12-07T08:57:54.822Z,76.10
2022-12-07T09:00:56.938Z,80.72
2022-12-07T09:03:59.052Z,64.13
2022-12-07T09:07:01.183Z,58.65
2022-12-07T09:10:04.028Z,56.20
2022-12-07T09:13:06.347Z,51.10
2022-12-07T09:16:08.566Z,43.30
2022-12-07T09:19:10.709Z,41.50
2022-12-07T09:22:12.991Z,38.83
2022-12-07T09:25:15.277Z,38.55
2022-12-07T09:28:17.409Z,31.07
2022-12-07T09:31:24.269Z,28.70
2022-12-07T09:34:27.859Z,32.25
2022-12-07T09:37:30.077Z,36.92
2022-12-07T09:40:34.249Z,26.90
2022-12-07T09:43:37.661Z,24.95
2022-12-07T09:46:41.023Z,26.80
2022-12-07T09:49:43.163Z,22.00
2022-12-07T09:52:46.501Z,23.92
2022-12-07T09:55:49.210Z,26.08
2022-12-07T09:58:52.820Z,27.20
2022-12-07T10:01:55.134Z,28.13
2022-12-07T10:04:58.761Z,33.22
2022-12-07T10:08:00.913Z,40.47
2022-12-07T10:11:04.843Z,31.92
2022-12-07T10:14:14.144Z,24.98
2022-12-07T10:17:36.453Z,26.27
2022-12-07T10:20:39.281Z,23.43
2022-12-07T10:23:42.785Z,26.63
2022-12-07T10:26:47.825Z,24.02
2022-12-07T10:29:51.467Z,19.73
2022-12-07T10:32:53.613Z,20.08
2022-12-07T10:35:55.680Z,18.77
2022-12-07T10:39:02.584Z,24.95
2022-12-07T10:42:04.802Z,21.52
2022-12-07T10:45:15.800Z,21.63
2022-12-07T10:48:26.664Z,21.77
2022-12-07T10:51:47.324Z,20.27
2022-12-07T10:55:07.941Z,18.55
2022-12-07T10:58:28.408Z,21.42
2022-12-07T11:01:39.552Z,23.57
2022-12-07T11:04:41.657Z,19.60
2022-12-07T11:07:53.530Z,21.05
2022-12-07T11:11:06.559Z,16.98
2022-12-07T11:14:23.062Z,16.00
2022-12-07T11:17:25.119Z,16.60
2022-12-07T11:20:30.142Z,21.27
2022-12-07T11:23:38.083Z,21.07
2022-12-07T11:27:04.540Z,18.08
2022-12-07T11:30:13.888Z,18.33
2022-12-07T11:33:19.019Z,21.90
2022-12-07T11:36:40.091Z,17.17
2022-12-07T11:40:02.141Z,17.75
2022-12-07T11:43:23.027Z,18.05
2022-12-07T11:46:30.046Z,20.90
2022-12-07T11:49:43.605Z,17.15
2022-12-07T11:52:51.564Z,17.85
2022-12-07T11:55:53.663Z,15.73
2022-12-07T11:58:57.896Z,14.63
2022-12-07T12:02:11.894Z,10.48
2022-12-07T12:05:16.847Z,17.30
2022-12-07T12:11:44.028Z,14.65
2022-12-07T12:14:54.915Z,13.02
2022-12-07T12:18:15.522Z,15.60
2022-12-07T12:21:19.799Z,13.60
2022-12-07T12:24:27.577Z,15.40
2022-12-07T12:27:34.468Z,18.20
2022-12-07T12:30:38.259Z,17.33
2022-12-07T12:33:44.677Z,19.25
2022-12-07T12:36:48.050Z,17.90
2022-12-07T12:40:09.056Z,20.73
2022-12-07T12:43:29.669Z,21.10
2022-12-07T12:46:34.632Z,14.02
2022-12-07T12:49:37.866Z,15.55
2022-12-07T12:52:39.913Z,17.90
2022-12-07T12:55:44.807Z,16.80
2022-12-07T12:58:48.523Z,16.17
2022-12-07T13:01:51.747Z,23.00
2022-12-07T13:04:58.405Z,17.50
2022-12-07T13:08:03.380Z,22.95
2022-12-07T13:11:26.201Z,21.38
2022-12-07T13:14:43.111Z,18.65
2022-12-07T13:17:59.807Z,20.13
2022-12-07T13:21:07.862Z,16.80
2022-12-07T13:24:11.305Z,18.83
2022-12-07T13:27:13.414Z,21.02
2022-12-07T13:30:20.116Z,19.48
2022-12-07T13:33:22.135Z,24.97
2022-12-07T13:36:28.581Z,19.73
2022-12-07T13:39:30.680Z,25.20
2022-12-07T13:42:34.403Z,19.58
2022-12-07T13:45:51.740Z,22.20
2022-12-07T13:48:54.759Z,22.55
2022-12-07T13:52:13.727Z,31.58
2022-12-07T13:55:17.154Z,23.60
2022-12-07T13:58:19.385Z,23.38
2022-12-07T14:01:21.625Z,25.17
2022-12-07T14:04:36.749Z,23.57
2022-12-07T14:07:50.318Z,24.38
2022-12-07T14:10:52.345Z,24.73
2022-12-07T14:13:59.228Z,27.00
2022-12-07T14:17:17.069Z,20.02
2022-12-07T14:20:37.715Z,28.10
2022-12-07T14:23:40.356Z,29.60
2022-12-07T14:26:42.864Z,35.77
2022-12-07T14:29:45.167Z,30.25
2022-12-07T14:32:49.721Z,37.72
2022-12-07T14:35:56.113Z,35.43
2022-12-07T14:39:00.496Z,33.67
2022-12-07T14:42:02.957Z,37.58
2022-12-07T14:45:05.839Z,36.80
2022-12-07T14:54:57.747Z,31.05
2022-12-07T14:58:00.242Z,29.23
2022-12-07T15:01:03.325Z,31.17
2022-12-07T15:04:06.336Z,30.52
2022-12-07T15:07:15.671Z,33.53
2022-12-07T15:10:23.597Z,42.75
2022-12-07T15:13:44.813Z,26.60
2022-12-07T15:17:08.130Z,66.10
2022-12-07T15:20:17.776Z,62.20
2022-12-07T15:23:19.929Z,54.08
2022-12-07T15:26:22.061Z,43.63
2022-12-07T15:29:24.273Z,51.80
2022-12-07T15:32:26.479Z,91.43
2022-12-07T15:35:28.513Z,54.42
2022-12-07T15:38:56.282Z,37.53
2022-12-07T15:41:53.660Z,53.63
2022-12-07T15:45:08.030Z,56.78
2022-12-07T15:51:32.231Z,53.88
2022-12-07T15:54:34.419Z,57.85
2022-12-07T15:57:38.112Z,155.68
2022-12-07T16:00:40.152Z,66.13
2022-12-07T16:03:42.871Z,44.90
2022-12-07T16:06:45.753Z,43.58
2022-12-07T16:09:47.917Z,90.03
2022-12-07T16:12:49.966Z,142.93
2022-12-07T16:15:52.052Z,80.00
2022-12-07T16:18:54.216Z,99.80
2022-12-07T16:21:56.238Z,65.00
2022-12-07T16:24:58.276Z,60.00
2022-12-07T16:28:00.291Z,73.18
2022-12-07T16:31:03.529Z,67.40
2022-12-07T16:34:05.704Z,65.20
2022-12-07T16:37:07.712Z,72.35
2022-12-07T16:40:10.119Z,64.67
2022-12-07T16:43:13.583Z,63.58
2022-12-07T16:46:16.867Z,58.83
2022-12-07T16:49:19.625Z,56.22
2022-12-07T16:52:22.202Z,50.08
2022-12-07T16:55:24.248Z,54.50
2022-12-07T16:58:26.244Z,47.70
2022-12-07T17:01:29.518Z,62.53
2022-12-07T17:04:31.737Z,50.13
2022-12-07T17:07:33.742Z,50.67
2022-12-07T17:10:36.543Z,51.63
2022-12-07T17:13:57.269Z,46.45
2022-12-07T17:16:59.922Z,45.47
2022-12-07T17:20:01.992Z,71.40
2022-12-07T17:23:04.112Z,88.13
2022-12-07T17:26:07.689Z,69.18
2022-12-07T17:29:11.181Z,59.90
2022-12-07T17:32:13.319Z,66.37
2022-12-07T17:35:15.471Z,59.28
2022-12-07T17:38:17.506Z,66.28
2022-12-07T17:41:37.945Z,72.03
2022-12-07T17:44:40.072Z,72.38
2022-12-07T17:47:42.058Z,52.47
2022-12-07T17:51:02.481Z,61.72
2022-12-07T17:54:04.731Z,60.65
2022-12-07T17:57:06.814Z,57.63
2022-12-07T18:00:09.782Z,50.28
2022-12-07T18:03:14.593Z,50.03
2022-12-07T18:06:16.667Z,49.25
2022-12-07T18:09:18.797Z,55.70
2022-12-07T18:12:20.824Z,53.10
2022-12-07T18:15:22.862Z,58.15
2022-12-07T18:18:24.868Z,52.22
2022-12-07T18:21:27.764Z,52.40
2022-12-07T18:24:36.441Z,44.83
2022-12-07T18:27:39.189Z,50.30
2022-12-07T18:31:13.279Z,56.03
2022-12-07T18:34:09.677Z,69.77
2022-12-07T18:37:11.673Z,74.30
2022-12-07T18:40:13.985Z,76.20
2022-12-07T18:43:16.076Z,70.47
2022-12-07T18:46:19.697Z,76.95
2022-12-07T18:49:22.058Z,79.55
2022-12-07T18:52:24.034Z,70.30
2022-12-07T18:55:26.547Z,58.10
2022-12-07T18:58:28.536Z,49.80
2022-12-07T19:01:31.699Z,51.78
2022-12-07T19:04:33.871Z,40.47
2022-12-07T19:07:36.333Z,41.70
2022-12-07T19:10:39.016Z,43.30
2022-12-07T19:13:41.029Z,42.67
2022-12-07T19:16:43.961Z,44.72
2022-12-07T19:19:46.656Z,43.20
2022-12-07T19:22:48.715Z,42.65
2022-12-07T19:25:50.670Z,42.15
2022-12-07T19:28:52.690Z,44.45
2022-12-07T19:31:54.768Z,46.35
2022-12-07T19:34:56.914Z,40.67
2022-12-07T19:37:58.926Z,32.13
2022-12-07T19:41:04.676Z,40.15
2022-12-07T19:44:08.123Z,39.27
2022-12-07T19:47:10.250Z,33.15
2022-12-07T19:50:12.257Z,39.95
2022-12-07T19:53:14.240Z,34.30
2022-12-07T19:56:17.085Z,40.33
2022-12-07T19:59:19.816Z,35.22
2022-12-07T20:02:21.873Z,39.40
2022-12-07T20:05:25.080Z,35.53
2022-12-07T20:08:27.144Z,32.08
2022-12-07T20:11:47.738Z,28.75
2022-12-07T20:14:49.897Z,32.93
2022-12-07T20:17:51.929Z,34.20
2022-12-07T20:20:56.474Z,42.40
2022-12-07T20:24:05.612Z,43.60
2022-12-07T20:27:07.711Z,44.65
2022-12-07T20:30:10.160Z,40.45
2022-12-07T20:33:12.259Z,44.03
2022-12-07T20:36:15.896Z,46.70
2022-12-07T20:39:17.953Z,44.20
2022-12-07T20:42:38.150Z,40.40
2022-12-07T20:45:49.876Z,38.57
2022-12-07T20:48:52.320Z,45.75
2022-12-07T20:51:54.727Z,40.20
2022-12-07T20:54:56.785Z,33.13
2022-12-07T20:57:58.829Z,35.33
2022-12-07T21:01:01.697Z,37.95
2022-12-07T21:04:04.065Z,44.25
2022-12-07T21:07:06.144Z,36.30
2022-12-07T21:10:08.358Z,42.42
2022-12-07T21:13:10.361Z,33.58
2022-12-07T21:16:14.012Z,36.17
2022-12-07T21:19:16.381Z,33.92
2022-12-07T21:22:18.422Z,32.33
2022-12-07T21:25:20.510Z,39.17
2022-12-07T21:28:22.508Z,43.22
2022-12-07T21:31:24.943Z,40.85
2022-12-07T21:34:26.981Z,53.60
2022-12-07T21:37:29.251Z,42.07
2022-12-07T21:40:31.252Z,41.58
2022-12-07T21:43:33.201Z,37.72
2022-12-07T21:46:35.307Z,40.33
2022-12-07T21:49:37.364Z,40.97
2022-12-07T21:52:39.357Z,43.85
2022-12-07T21:55:42.416Z,32.65
2022-12-07T21:58:44.647Z,38.30
2022-12-07T22:01:48.519Z,41.03
2022-12-07T22:04:50.672Z,36.25
2022-12-07T22:07:52.746Z,32.00
2022-12-07T22:10:54.900Z,35.53
2022-12-07T22:14:15.512Z,39.05
2022-12-07T22:17:17.542Z,32.47
2022-12-07T22:20:20.460Z,34.08
2022-12-07T22:23:22.453Z,31.15
2022-12-07T22:26:24.850Z,30.15
2022-12-07T22:29:26.993Z,38.35
2022-12-07T22:35:54.358Z,32.92
2022-12-07T22:38:56.773Z,31.40
2022-12-07T22:41:58.871Z,30.70
2022-12-07T22:45:01.112Z,29.05
2022-12-07T22:48:03.465Z,40.20
2022-12-07T22:51:05.505Z,43.78
2022-12-07T22:54:09.360Z,34.97
2022-12-07T22:57:11.315Z,43.50
2022-12-07T23:00:13.933Z,49.92
2022-12-07T23:03:16.065Z,41.03
2022-12-07T23:06:19.700Z,38.00
2022-12-07T23:09:21.862Z,47.27
2022-12-07T23:12:42.061Z,43.00
2022-12-07T23:15:44.155Z,43.20
2022-12-07T23:18:46.291Z,42.27
2022-12-07T23:21:48.299Z,40.28
2022-12-07T23:24:50.272Z,37.00
2022-12-07T23:27:52.276Z,35.67
2022-12-07T23:30:54.305Z,35.83
2022-12-07T23:33:56.379Z,35.00
2022-12-07T23:36:58.425Z,35.33
2022-12-07T23:40:00.371Z,39.73
2022-12-07T23:43:02.445Z,29.85
2022-12-07T23:46:07.711Z,30.65
2022-12-07T23:49:10.744Z,38.90
2022-12-07T23:52:12.827Z,36.33
2022-12-07T23:55:14.915Z,30.50
2022-12-07T23:58:16.912Z,34.70
